sensor_id;sensor_type;location;lat;lon;timestamp;P1;durP1;ratioP1;P2;durP2;ratioP2
5299;SDS011;70402;42.670;23.258;2024-03-23T00:54:53;5.82;;;3.47;;
5299;SDS011;70402;42.670;23.258;2024-03-23T00:57:20;9.32;;;4.45;;
5299;SDS011;70402;42.670;23.258;2024-03-23T00:59:46;4.50;;;3.60;;
5299;SDS011;70402;42.670;23.258;2024-03-23T01:02:13;6.03;;;4.03;;
5299;SDS011;70402;42.670;23.258;2024-03-23T01:04:39;8.77;;;3.60;;
5299;SDS011;70402;42.670;23.258;2024-03-23T01:07:05;7.50;;;3.07;;
5299;SDS011;70402;42.670;23.258;2024-03-23T01:09:31;5.75;;;3.63;;
5299;SDS011;70402;42.670;23.258;2024-03-23T01:11:58;4.93;;;3.80;;
5299;SDS011;70402;42.670;23.258;2024-03-23T01:14:24;8.65;;;3.40;;
5299;SDS011;70402;42.670;23.258;2024-03-23T01:16:50;5.23;;;3.70;;
5299;SDS011;70402;42.670;23.258;2024-03-23T01:19:16;6.80;;;3.10;;
5299;SDS011;70402;42.670;23.258;2024-03-23T01:21:42;7.90;;;3.42;;
5299;SDS011;70402;42.670;23.258;2024-03-23T01:24:09;5.25;;;3.70;;
5299;SDS011;70402;42.670;23.258;2024-03-23T01:26:36;6.83;;;4.20;;
5299;SDS011;70402;42.670;23.258;2024-03-23T01:29:02;11.90;;;3.60;;
5299;SDS011;70402;42.670;23.258;2024-03-23T01:31:28;7.15;;;3.90;;
5299;SDS011;70402;42.670;23.258;2024-03-23T01:33:55;6.10;;;4.35;;
5299;SDS011;70402;42.670;23.258;2024-03-23T01:36:21;6.82;;;4.32;;
5299;SDS011;70402;42.670;23.258;2024-03-23T01:38:47;9.50;;;4.18;;
5299;SDS011;70402;42.670;23.258;2024-03-23T01:41:13;6.73;;;3.83;;
5299;SDS011;70402;42.670;23.258;2024-03-23T01:43:39;6.65;;;3.60;;
5299;SDS011;70402;42.670;23.258;2024-03-23T01:46:06;5.45;;;3.22;;
5299;SDS011;70402;42.670;23.258;2024-03-23T01:48:32;7.82;;;4.78;;
5299;SDS011;70402;42.670;23.258;2024-03-23T01:50:59;6.95;;;4.75;;
5299;SDS011;70402;42.670;23.258;2024-03-23T01:53:25;8.20;;;4.82;;
5299;SDS011;70402;42.670;23.258;2024-03-23T01:55:57;11.13;;;6.03;;
5299;SDS011;70402;42.670;23.258;2024-03-23T01:58:23;7.47;;;4.53;;
5299;SDS011;70402;42.670;23.258;2024-03-23T02:00:49;9.00;;;4.22;;
5299;SDS011;70402;42.670;23.258;2024-03-23T02:03:22;11.20;;;5.20;;
5299;SDS011;70402;42.670;23.258;2024-03-23T02:05:49;8.80;;;5.85;;
5299;SDS011;70402;42.670;23.258;2024-03-23T02:08:16;7.57;;;4.57;;
5299;SDS011;70402;42.670;23.258;2024-03-23T02:10:43;12.20;;;4.88;;
5299;SDS011;70402;42.670;23.258;2024-03-23T02:13:09;10.75;;;5.47;;
5299;SDS011;70402;42.670;23.258;2024-03-23T02:15:35;11.52;;;5.55;;
5299;SDS011;70402;42.670;23.258;2024-03-23T02:18:01;13.60;;;6.05;;
5299;SDS011;70402;42.670;23.258;2024-03-23T02:20:27;8.05;;;5.40;;
5299;SDS011;70402;42.670;23.258;2024-03-23T02:22:54;8.75;;;5.38;;
5299;SDS011;70402;42.670;23.258;2024-03-23T02:25:20;10.73;;;6.13;;
5299;SDS011;70402;42.670;23.258;2024-03-23T02:27:46;8.52;;;5.20;;
5299;SDS011;70402;42.670;23.258;2024-03-23T02:30:13;6.88;;;5.13;;
5299;SDS011;70402;42.670;23.258;2024-03-23T02:32:39;10.40;;;4.63;;
5299;SDS011;70402;42.670;23.258;2024-03-23T02:35:05;9.07;;;5.03;;
5299;SDS011;70402;42.670;23.258;2024-03-23T02:37:32;5.78;;;4.65;;
5299;SDS011;70402;42.670;23.258;2024-03-23T02:39:58;7.95;;;4.68;;
5299;SDS011;70402;42.670;23.258;2024-03-23T02:42:24;9.80;;;5.28;;
5299;SDS011;70402;42.670;23.258;2024-03-23T02:44:50;9.63;;;4.80;;
5299;SDS011;70402;42.670;23.258;2024-03-23T02:47:17;7.45;;;4.95;;
5299;SDS011;70402;42.670;23.258;2024-03-23T02:49:43;8.90;;;4.55;;
5299;SDS011;70402;42.670;23.258;2024-03-23T02:52:09;12.68;;;5.07;;
5299;SDS011;70402;42.670;23.258;2024-03-23T02:54:35;11.55;;;6.07;;
5299;SDS011;70402;42.670;23.258;2024-03-23T02:57:02;7.50;;;4.78;;
5299;SDS011;70402;42.670;23.258;2024-03-23T02:59:28;10.40;;;5.43;;
5299;SDS011;70402;42.670;23.258;2024-03-23T03:01:54;19.88;;;5.50;;
5299;SDS011;70402;42.670;23.258;2024-03-23T03:04:21;15.35;;;6.00;;
5299;SDS011;70402;42.670;23.258;2024-03-23T03:06:47;9.82;;;5.13;;
5299;SDS011;70402;42.670;23.258;2024-03-23T03:09:13;13.70;;;5.57;;
5299;SDS011;70402;42.670;23.258;2024-03-23T03:11:40;8.05;;;5.43;;
5299;SDS011;70402;42.670;23.258;2024-03-23T03:14:06;16.08;;;5.85;;
5299;SDS011;70402;42.670;23.258;2024-03-23T03:16:33;12.43;;;5.32;;
5299;SDS011;70402;42.670;23.258;2024-03-23T03:18:59;12.23;;;5.57;;
5299;SDS011;70402;42.670;23.258;2024-03-23T03:21:26;9.73;;;5.28;;
5299;SDS011;70402;42.670;23.258;2024-03-23T03:23:52;10.80;;;4.88;;
5299;SDS011;70402;42.670;23.258;2024-03-23T03:26:19;8.70;;;5.70;;
5299;SDS011;70402;42.670;23.258;2024-03-23T03:28:45;5.47;;;4.00;;
5299;SDS011;70402;42.670;23.258;2024-03-23T03:31:17;20.88;;;4.10;;
5299;SDS011;70402;42.670;23.258;2024-03-23T03:33:44;6.53;;;4.50;;
5299;SDS011;70402;42.670;23.258;2024-03-23T03:36:10;7.88;;;4.97;;
5299;SDS011;70402;42.670;23.258;2024-03-23T03:38:37;10.68;;;5.30;;
5299;SDS011;70402;42.670;23.258;2024-03-23T03:41:06;12.93;;;5.30;;
5299;SDS011;70402;42.670;23.258;2024-03-23T03:43:32;9.52;;;4.45;;
5299;SDS011;70402;42.670;23.258;2024-03-23T03:45:59;10.68;;;5.15;;
5299;SDS011;70402;42.670;23.258;2024-03-23T03:48:25;7.85;;;5.03;;
5299;SDS011;70402;42.670;23.258;2024-03-23T03:50:52;11.27;;;4.32;;
5299;SDS011;70402;42.670;23.258;2024-03-23T03:53:18;5.72;;;3.45;;
5299;SDS011;70402;42.670;23.258;2024-03-23T03:55:45;12.45;;;5.43;;
5299;SDS011;70402;42.670;23.258;2024-03-23T03:58:11;7.35;;;4.28;;
5299;SDS011;70402;42.670;23.258;2024-03-23T04:00:38;6.70;;;3.97;;
5299;SDS011;70402;42.670;23.258;2024-03-23T04:03:04;8.73;;;4.75;;
5299;SDS011;70402;42.670;23.258;2024-03-23T04:05:31;5.35;;;4.35;;
5299;SDS011;70402;42.670;23.258;2024-03-23T04:07:57;7.85;;;5.05;;
5299;SDS011;70402;42.670;23.258;2024-03-23T04:10:24;4.80;;;3.75;;
5299;SDS011;70402;42.670;23.258;2024-03-23T04:12:50;8.40;;;4.53;;
5299;SDS011;70402;42.670;23.258;2024-03-23T04:15:16;11.15;;;5.25;;
5299;SDS011;70402;42.670;23.258;2024-03-23T04:17:42;5.38;;;3.95;;
5299;SDS011;70402;42.670;23.258;2024-03-23T04:20:09;11.95;;;4.30;;
5299;SDS011;70402;42.670;23.258;2024-03-23T04:22:36;9.05;;;4.15;;
5299;SDS011;70402;42.670;23.258;2024-03-23T04:25:03;4.38;;;3.85;;
5299;SDS011;70402;42.670;23.258;2024-03-23T04:27:34;6.95;;;3.97;;
5299;SDS011;70402;42.670;23.258;2024-03-23T04:30:00;7.13;;;4.20;;
5299;SDS011;70402;42.670;23.258;2024-03-23T04:32:28;9.35;;;4.95;;
5299;SDS011;70402;42.670;23.258;2024-03-23T04:34:54;6.22;;;3.80;;
5299;SDS011;70402;42.670;23.258;2024-03-23T04:37:21;11.88;;;4.78;;
5299;SDS011;70402;42.670;23.258;2024-03-23T04:39:47;8.85;;;4.45;;
5299;SDS011;70402;42.670;23.258;2024-03-23T04:42:16;7.68;;;4.35;;
5299;SDS011;70402;42.670;23.258;2024-03-23T04:44:42;9.05;;;4.10;;
5299;SDS011;70402;42.670;23.258;2024-03-23T04:47:10;19.88;;;4.68;;
5299;SDS011;70402;42.670;23.258;2024-03-23T04:49:36;6.82;;;4.00;;
5299;SDS011;70402;42.670;23.258;2024-03-23T04:52:03;6.82;;;5.32;;
5299;SDS011;70402;42.670;23.258;2024-03-23T04:54:29;7.60;;;4.32;;
5299;SDS011;70402;42.670;23.258;2024-03-23T04:56:57;10.52;;;4.38;;
5299;SDS011;70402;42.670;23.258;2024-03-23T04:59:23;9.32;;;4.43;;
5299;SDS011;70402;42.670;23.258;2024-03-23T05:01:49;9.63;;;5.90;;
5299;SDS011;70402;42.670;23.258;2024-03-23T05:04:15;15.20;;;7.70;;
5299;SDS011;70402;42.670;23.258;2024-03-23T05:06:42;10.18;;;5.75;;
5299;SDS011;70402;42.670;23.258;2024-03-23T05:09:08;11.73;;;4.75;;
5299;SDS011;70402;42.670;23.258;2024-03-23T05:11:40;12.52;;;5.97;;
5299;SDS011;70402;42.670;23.258;2024-03-23T05:14:07;10.75;;;5.43;;
5299;SDS011;70402;42.670;23.258;2024-03-23T05:16:33;11.90;;;5.85;;
5299;SDS011;70402;42.670;23.258;2024-03-23T05:19:00;5.97;;;4.53;;
5299;SDS011;70402;42.670;23.258;2024-03-23T05:21:26;6.65;;;4.00;;
5299;SDS011;70402;42.670;23.258;2024-03-23T05:23:55;8.17;;;4.87;;
5299;SDS011;70402;42.670;23.258;2024-03-23T05:26:22;9.13;;;4.70;;
5299;SDS011;70402;42.670;23.258;2024-03-23T05:28:48;8.40;;;5.23;;
5299;SDS011;70402;42.670;23.258;2024-03-23T05:31:24;8.52;;;5.13;;
5299;SDS011;70402;42.670;23.258;2024-03-23T05:33:50;10.43;;;5.40;;
5299;SDS011;70402;42.670;23.258;2024-03-23T05:36:17;6.75;;;4.45;;
5299;SDS011;70402;42.670;23.258;2024-03-23T05:38:43;9.02;;;5.35;;
5299;SDS011;70402;42.670;23.258;2024-03-23T05:41:09;18.63;;;5.47;;
5299;SDS011;70402;42.670;23.258;2024-03-23T05:43:35;5.83;;;4.10;;
5299;SDS011;70402;42.670;23.258;2024-03-23T05:46:01;8.43;;;4.97;;
5299;SDS011;70402;42.670;23.258;2024-03-23T05:48:29;8.87;;;5.10;;
5299;SDS011;70402;42.670;23.258;2024-03-23T05:50:56;9.03;;;5.20;;
5299;SDS011;70402;42.670;23.258;2024-03-23T05:53:22;7.50;;;5.30;;
5299;SDS011;70402;42.670;23.258;2024-03-23T05:55:50;10.00;;;5.67;;
5299;SDS011;70402;42.670;23.258;2024-03-23T05:58:18;10.33;;;6.47;;
5299;SDS011;70402;42.670;23.258;2024-03-23T06:00:45;9.07;;;5.80;;
5299;SDS011;70402;42.670;23.258;2024-03-23T06:03:11;11.73;;;6.60;;
5299;SDS011;70402;42.670;23.258;2024-03-23T06:05:38;10.30;;;6.67;;
5299;SDS011;70402;42.670;23.258;2024-03-23T06:08:04;8.83;;;5.80;;
5299;SDS011;70402;42.670;23.258;2024-03-23T06:10:32;8.57;;;5.20;;
5299;SDS011;70402;42.670;23.258;2024-03-23T06:12:58;16.43;;;5.60;;
5299;SDS011;70402;42.670;23.258;2024-03-23T06:15:25;11.30;;;6.10;;
5299;SDS011;70402;42.670;23.258;2024-03-23T06:17:52;10.57;;;7.57;;
5299;SDS011;70402;42.670;23.258;2024-03-23T06:20:18;11.00;;;6.40;;
5299;SDS011;70402;42.670;23.258;2024-03-23T06:22:44;11.80;;;6.60;;
5299;SDS011;70402;42.670;23.258;2024-03-23T06:25:10;13.53;;;6.13;;
5299;SDS011;70402;42.670;23.258;2024-03-23T06:27:37;10.97;;;6.03;;
5299;SDS011;70402;42.670;23.258;2024-03-23T06:30:04;9.50;;;5.57;;
5299;SDS011;70402;42.670;23.258;2024-03-23T06:32:31;13.17;;;6.97;;
5299;SDS011;70402;42.670;23.258;2024-03-23T06:34:58;10.17;;;6.00;;
5299;SDS011;70402;42.670;23.258;2024-03-23T06:37:24;14.50;;;6.97;;
5299;SDS011;70402;42.670;23.258;2024-03-23T06:39:50;11.57;;;6.73;;
5299;SDS011;70402;42.670;23.258;2024-03-23T06:42:17;13.00;;;6.37;;
5299;SDS011;70402;42.670;23.258;2024-03-23T06:44:43;12.80;;;6.57;;
5299;SDS011;70402;42.670;23.258;2024-03-23T06:47:10;9.97;;;5.40;;
5299;SDS011;70402;42.670;23.258;2024-03-23T06:49:43;9.77;;;7.13;;
5299;SDS011;70402;42.670;23.258;2024-03-23T06:52:09;9.20;;;5.87;;
5299;SDS011;70402;42.670;23.258;2024-03-23T06:54:35;11.17;;;5.87;;
5299;SDS011;70402;42.670;23.258;2024-03-23T06:57:01;11.40;;;6.17;;
5299;SDS011;70402;42.670;23.258;2024-03-23T06:59:28;10.00;;;5.83;;
5299;SDS011;70402;42.670;23.258;2024-03-23T07:01:54;9.53;;;5.60;;
5299;SDS011;70402;42.670;23.258;2024-03-23T07:04:20;13.90;;;6.20;;
5299;SDS011;70402;42.670;23.258;2024-03-23T07:06:46;9.70;;;5.60;;
5299;SDS011;70402;42.670;23.258;2024-03-23T07:09:13;15.40;;;6.30;;
5299;SDS011;70402;42.670;23.258;2024-03-23T07:11:39;10.47;;;5.57;;
5299;SDS011;70402;42.670;23.258;2024-03-23T07:14:05;9.40;;;5.80;;
5299;SDS011;70402;42.670;23.258;2024-03-23T07:16:32;11.33;;;6.33;;
5299;SDS011;70402;42.670;23.258;2024-03-23T07:18:58;12.80;;;6.47;;
5299;SDS011;70402;42.670;23.258;2024-03-23T07:21:24;13.50;;;6.33;;
5299;SDS011;70402;42.670;23.258;2024-03-23T07:23:51;17.13;;;7.13;;
5299;SDS011;70402;42.670;23.258;2024-03-23T07:26:17;12.13;;;6.40;;
5299;SDS011;70402;42.670;23.258;2024-03-23T07:28:44;11.53;;;6.60;;
5299;SDS011;70402;42.670;23.258;2024-03-23T07:31:11;10.27;;;6.67;;
5299;SDS011;70402;42.670;23.258;2024-03-23T07:33:42;10.97;;;6.20;;
5299;SDS011;70402;42.670;23.258;2024-03-23T07:36:08;10.20;;;7.03;;
5299;SDS011;70402;42.670;23.258;2024-03-23T07:38:34;12.43;;;6.70;;
5299;SDS011;70402;42.670;23.258;2024-03-23T07:41:07;13.30;;;6.77;;
5299;SDS011;70402;42.670;23.258;2024-03-23T07:43:34;10.30;;;6.10;;
5299;SDS011;70402;42.670;23.258;2024-03-23T07:46:00;9.77;;;6.37;;
5299;SDS011;70402;42.670;23.258;2024-03-23T07:48:28;10.73;;;6.57;;
5299;SDS011;70402;42.670;23.258;2024-03-23T07:53:24;10.50;;;6.70;;
5299;SDS011;70402;42.670;23.258;2024-03-23T07:56:00;13.03;;;6.93;;
5299;SDS011;70402;42.670;23.258;2024-03-23T07:58:26;10.73;;;6.10;;
5299;SDS011;70402;42.670;23.258;2024-03-23T08:00:53;12.93;;;6.23;;
5299;SDS011;70402;42.670;23.258;2024-03-23T08:03:19;11.87;;;6.10;;
5299;SDS011;70402;42.670;23.258;2024-03-23T08:05:45;9.10;;;5.60;;
5299;SDS011;70402;42.670;23.258;2024-03-23T08:08:12;12.10;;;6.80;;
5299;SDS011;70402;42.670;23.258;2024-03-23T08:10:47;13.80;;;6.80;;
5299;SDS011;70402;42.670;23.258;2024-03-23T08:13:14;13.77;;;7.10;;
5299;SDS011;70402;42.670;23.258;2024-03-23T08:15:40;14.30;;;7.00;;
5299;SDS011;70402;42.670;23.258;2024-03-23T08:18:06;12.07;;;7.40;;
5299;SDS011;70402;42.670;23.258;2024-03-23T08:20:32;12.03;;;7.40;;
5299;SDS011;70402;42.670;23.258;2024-03-23T08:22:59;12.33;;;6.63;;
5299;SDS011;70402;42.670;23.258;2024-03-23T08:25:25;16.13;;;7.67;;
5299;SDS011;70402;42.670;23.258;2024-03-23T08:27:51;13.93;;;6.87;;
5299;SDS011;70402;42.670;23.258;2024-03-23T08:30:18;17.80;;;7.27;;
5299;SDS011;70402;42.670;23.258;2024-03-23T08:32:44;13.67;;;7.30;;
5299;SDS011;70402;42.670;23.258;2024-03-23T08:35:11;10.53;;;6.37;;
5299;SDS011;70402;42.670;23.258;2024-03-23T08:37:37;17.27;;;7.70;;
5299;SDS011;70402;42.670;23.258;2024-03-23T08:40:03;12.90;;;7.47;;
5299;SDS011;70402;42.670;23.258;2024-03-23T08:42:30;16.90;;;6.67;;
5299;SDS011;70402;42.670;23.258;2024-03-23T08:44:56;17.67;;;7.47;;
5299;SDS011;70402;42.670;23.258;2024-03-23T08:47:22;15.87;;;7.63;;
5299;SDS011;70402;42.670;23.258;2024-03-23T08:49:48;11.43;;;7.10;;
5299;SDS011;70402;42.670;23.258;2024-03-23T08:52:15;16.83;;;7.33;;
5299;SDS011;70402;42.670;23.258;2024-03-23T08:54:41;12.17;;;6.90;;
5299;SDS011;70402;42.670;23.258;2024-03-23T08:57:07;11.63;;;6.27;;
5299;SDS011;70402;42.670;23.258;2024-03-23T08:59:33;33.87;;;7.63;;
5299;SDS011;70402;42.670;23.258;2024-03-23T09:02:00;13.23;;;7.13;;
5299;SDS011;70402;42.670;23.258;2024-03-23T09:04:26;18.10;;;7.10;;
5299;SDS011;70402;42.670;23.258;2024-03-23T09:06:52;12.73;;;6.97;;
5299;SDS011;70402;42.670;23.258;2024-03-23T09:09:18;13.67;;;6.80;;
5299;SDS011;70402;42.670;23.258;2024-03-23T09:11:45;13.10;;;7.43;;
5299;SDS011;70402;42.670;23.258;2024-03-23T09:14:11;12.17;;;6.50;;
5299;SDS011;70402;42.670;23.258;2024-03-23T09:16:37;11.20;;;6.90;;
5299;SDS011;70402;42.670;23.258;2024-03-23T09:19:03;12.13;;;7.17;;
5299;SDS011;70402;42.670;23.258;2024-03-23T09:21:30;12.70;;;6.67;;
5299;SDS011;70402;42.670;23.258;2024-03-23T09:23:56;19.83;;;7.20;;
5299;SDS011;70402;42.670;23.258;2024-03-23T09:26:22;11.73;;;6.47;;
5299;SDS011;70402;42.670;23.258;2024-03-23T09:28:48;14.27;;;6.70;;
5299;SDS011;70402;42.670;23.258;2024-03-23T09:31:15;11.73;;;6.33;;
5299;SDS011;70402;42.670;23.258;2024-03-23T09:33:41;14.77;;;7.23;;
5299;SDS011;70402;42.670;23.258;2024-03-23T09:36:08;16.77;;;8.43;;
5299;SDS011;70402;42.670;23.258;2024-03-23T09:38:34;17.67;;;7.43;;
5299;SDS011;70402;42.670;23.258;2024-03-23T09:41:00;25.90;;;9.37;;
5299;SDS011;70402;42.670;23.258;2024-03-23T09:43:26;17.37;;;7.00;;
5299;SDS011;70402;42.670;23.258;2024-03-23T09:45:52;18.83;;;8.40;;
5299;SDS011;70402;42.670;23.258;2024-03-23T09:48:19;14.90;;;7.70;;
5299;SDS011;70402;42.670;23.258;2024-03-23T09:50:45;76.27;;;19.40;;
5299;SDS011;70402;42.670;23.258;2024-03-23T09:53:13;14.90;;;7.30;;
5299;SDS011;70402;42.670;23.258;2024-03-23T09:55:40;24.67;;;7.77;;
5299;SDS011;70402;42.670;23.258;2024-03-23T09:58:06;9.27;;;6.53;;
5299;SDS011;70402;42.670;23.258;2024-03-23T10:00:33;18.93;;;7.30;;
5299;SDS011;70402;42.670;23.258;2024-03-23T10:02:59;22.57;;;7.50;;
5299;SDS011;70402;42.670;23.258;2024-03-23T10:05:29;10.10;;;6.07;;
5299;SDS011;70402;42.670;23.258;2024-03-23T10:08:22;9.00;;;5.73;;
5299;SDS011;70402;42.670;23.258;2024-03-23T10:10:48;13.43;;;6.73;;
5299;SDS011;70402;42.670;23.258;2024-03-23T10:13:23;9.80;;;6.00;;
5299;SDS011;70402;42.670;23.258;2024-03-23T10:15:54;11.13;;;6.80;;
5299;SDS011;70402;42.670;23.258;2024-03-23T10:18:20;11.63;;;6.00;;
5299;SDS011;70402;42.670;23.258;2024-03-23T10:20:50;10.40;;;5.50;;
5299;SDS011;70402;42.670;23.258;2024-03-23T10:23:16;9.63;;;5.80;;
5299;SDS011;70402;42.670;23.258;2024-03-23T10:25:42;11.83;;;6.20;;
5299;SDS011;70402;42.670;23.258;2024-03-23T10:28:09;11.37;;;6.97;;
5299;SDS011;70402;42.670;23.258;2024-03-23T10:30:36;12.47;;;5.73;;
5299;SDS011;70402;42.670;23.258;2024-03-23T10:33:09;8.20;;;4.63;;
5299;SDS011;70402;42.670;23.258;2024-03-23T10:35:36;10.33;;;6.03;;
5299;SDS011;70402;42.670;23.258;2024-03-23T10:38:04;10.30;;;6.07;;
5299;SDS011;70402;42.670;23.258;2024-03-23T10:40:31;9.73;;;5.30;;
5299;SDS011;70402;42.670;23.258;2024-03-23T10:42:57;9.90;;;5.10;;
5299;SDS011;70402;42.670;23.258;2024-03-23T10:45:25;10.27;;;4.90;;
5299;SDS011;70402;42.670;23.258;2024-03-23T10:47:51;10.00;;;6.00;;
5299;SDS011;70402;42.670;23.258;2024-03-23T10:50:17;12.70;;;6.07;;
5299;SDS011;70402;42.670;23.258;2024-03-23T10:52:46;12.40;;;6.20;;
5299;SDS011;70402;42.670;23.258;2024-03-23T10:55:13;9.93;;;5.23;;
5299;SDS011;70402;42.670;23.258;2024-03-23T10:57:41;10.63;;;5.37;;
5299;SDS011;70402;42.670;23.258;2024-03-23T11:00:08;14.30;;;5.23;;
5299;SDS011;70402;42.670;23.258;2024-03-23T11:02:35;12.67;;;4.60;;
5299;SDS011;70402;42.670;23.258;2024-03-23T11:05:01;7.40;;;5.13;;
5299;SDS011;70402;42.670;23.258;2024-03-23T11:09:54;14.10;;;6.37;;
5299;SDS011;70402;42.670;23.258;2024-03-23T11:15:11;14.63;;;5.53;;
5299;SDS011;70402;42.670;23.258;2024-03-23T11:17:37;13.07;;;5.70;;
5299;SDS011;70402;42.670;23.258;2024-03-23T11:20:04;8.23;;;5.10;;
5299;SDS011;70402;42.670;23.258;2024-03-23T11:22:49;8.10;;;4.87;;
5299;SDS011;70402;42.670;23.258;2024-03-23T11:25:26;8.67;;;5.00;;
5299;SDS011;70402;42.670;23.258;2024-03-23T11:27:53;12.60;;;4.60;;
5299;SDS011;70402;42.670;23.258;2024-03-23T11:32:49;10.20;;;4.93;;
5299;SDS011;70402;42.670;23.258;2024-03-23T11:35:34;9.00;;;4.93;;
5299;SDS011;70402;42.670;23.258;2024-03-23T11:40:30;14.93;;;5.30;;
5299;SDS011;70402;42.670;23.258;2024-03-23T11:42:58;4.53;;;2.43;;
5299;SDS011;70402;42.670;23.258;2024-03-23T11:45:24;2.87;;;2.00;;
5299;SDS011;70402;42.670;23.258;2024-03-23T11:48:06;2.07;;;1.63;;
5299;SDS011;70402;42.670;23.258;2024-03-23T11:50:33;7.87;;;2.60;;
5299;SDS011;70402;42.670;23.258;2024-03-23T11:53:06;3.70;;;2.13;;
5299;SDS011;70402;42.670;23.258;2024-03-23T11:55:38;5.13;;;2.70;;
5299;SDS011;70402;42.670;23.258;2024-03-23T11:58:05;3.43;;;1.97;;
5299;SDS011;70402;42.670;23.258;2024-03-23T12:00:31;3.47;;;2.10;;
5299;SDS011;70402;42.670;23.258;2024-03-23T12:03:03;6.40;;;3.03;;
5299;SDS011;70402;42.670;23.258;2024-03-23T12:05:30;10.00;;;3.57;;
5299;SDS011;70402;42.670;23.258;2024-03-23T12:10:44;5.07;;;2.73;;
5299;SDS011;70402;42.670;23.258;2024-03-23T12:13:11;7.43;;;2.50;;
5299;SDS011;70402;42.670;23.258;2024-03-23T12:15:37;3.97;;;1.50;;
5299;SDS011;70402;42.670;23.258;2024-03-23T12:18:09;5.53;;;1.50;;
5299;SDS011;70402;42.670;23.258;2024-03-23T12:20:36;8.53;;;2.70;;
5299;SDS011;70402;42.670;23.258;2024-03-23T12:23:12;1.30;;;1.00;;
5299;SDS011;70402;42.670;23.258;2024-03-23T12:25:39;1.53;;;0.90;;
5299;SDS011;70402;42.670;23.258;2024-03-23T12:28:05;7.17;;;2.10;;
5299;SDS011;70402;42.670;23.258;2024-03-23T12:30:35;3.10;;;1.10;;
5299;SDS011;70402;42.670;23.258;2024-03-23T12:33:01;1.47;;;0.90;;
5299;SDS011;70402;42.670;23.258;2024-03-23T12:35:28;3.43;;;1.50;;
5299;SDS011;70402;42.670;23.258;2024-03-23T12:37:54;2.30;;;1.20;;
5299;SDS011;70402;42.670;23.258;2024-03-23T12:40:20;1.40;;;1.17;;
5299;SDS011;70402;42.670;23.258;2024-03-23T12:42:47;2.50;;;1.30;;
5299;SDS011;70402;42.670;23.258;2024-03-23T12:45:13;1.00;;;0.80;;
5299;SDS011;70402;42.670;23.258;2024-03-23T12:47:39;1.93;;;1.03;;
5299;SDS011;70402;42.670;23.258;2024-03-23T12:50:05;5.57;;;1.67;;
5299;SDS011;70402;42.670;23.258;2024-03-23T12:52:32;1.90;;;1.30;;
5299;SDS011;70402;42.670;23.258;2024-03-23T12:54:58;3.60;;;2.57;;
5299;SDS011;70402;42.670;23.258;2024-03-23T12:57:25;2.90;;;1.03;;
5299;SDS011;70402;42.670;23.258;2024-03-23T12:59:51;2.70;;;1.00;;
5299;SDS011;70402;42.670;23.258;2024-03-23T13:02:20;9.20;;;1.27;;
5299;SDS011;70402;42.670;23.258;2024-03-23T13:04:49;1.47;;;1.00;;
5299;SDS011;70402;42.670;23.258;2024-03-23T13:07:16;3.90;;;2.17;;
5299;SDS011;70402;42.670;23.258;2024-03-23T13:09:42;1.77;;;1.20;;
5299;SDS011;70402;42.670;23.258;2024-03-23T13:12:08;1.90;;;1.13;;
5299;SDS011;70402;42.670;23.258;2024-03-23T13:14:34;3.70;;;1.20;;
5299;SDS011;70402;42.670;23.258;2024-03-23T13:17:01;1.20;;;0.80;;
5299;SDS011;70402;42.670;23.258;2024-03-23T13:19:27;1.67;;;1.33;;
5299;SDS011;70402;42.670;23.258;2024-03-23T13:21:56;1.43;;;0.93;;
5299;SDS011;70402;42.670;23.258;2024-03-23T13:24:23;2.60;;;1.37;;
5299;SDS011;70402;42.670;23.258;2024-03-23T13:26:49;1.80;;;1.20;;
5299;SDS011;70402;42.670;23.258;2024-03-23T13:29:16;1.73;;;1.13;;
5299;SDS011;70402;42.670;23.258;2024-03-23T13:31:42;2.53;;;1.20;;
5299;SDS011;70402;42.670;23.258;2024-03-23T13:34:09;2.13;;;1.13;;
5299;SDS011;70402;42.670;23.258;2024-03-23T13:36:35;5.53;;;1.47;;
5299;SDS011;70402;42.670;23.258;2024-03-23T13:39:02;1.17;;;1.07;;
5299;SDS011;70402;42.670;23.258;2024-03-23T13:41:31;1.40;;;1.20;;
5299;SDS011;70402;42.670;23.258;2024-03-23T13:43:57;1.53;;;1.20;;
5299;SDS011;70402;42.670;23.258;2024-03-23T13:46:23;2.77;;;1.20;;
5299;SDS011;70402;42.670;23.258;2024-03-23T13:48:49;5.83;;;2.00;;
5299;SDS011;70402;42.670;23.258;2024-03-23T13:51:16;2.13;;;1.10;;
5299;SDS011;70402;42.670;23.258;2024-03-23T13:53:49;1.80;;;1.17;;
5299;SDS011;70402;42.670;23.258;2024-03-23T13:56:15;2.40;;;1.53;;
5299;SDS011;70402;42.670;23.258;2024-03-23T13:58:41;3.33;;;1.80;;
5299;SDS011;70402;42.670;23.258;2024-03-23T14:01:11;4.27;;;1.30;;
5299;SDS011;70402;42.670;23.258;2024-03-23T14:03:37;4.40;;;1.87;;
5299;SDS011;70402;42.670;23.258;2024-03-23T14:06:04;1.90;;;1.23;;
5299;SDS011;70402;42.670;23.258;2024-03-23T14:08:32;1.63;;;1.20;;
5299;SDS011;70402;42.670;23.258;2024-03-23T14:11:00;5.53;;;1.90;;
5299;SDS011;70402;42.670;23.258;2024-03-23T14:13:27;4.37;;;1.90;;
5299;SDS011;70402;42.670;23.258;2024-03-23T14:15:54;3.27;;;2.00;;
5299;SDS011;70402;42.670;23.258;2024-03-23T14:18:20;2.50;;;1.80;;
5299;SDS011;70402;42.670;23.258;2024-03-23T14:20:48;2.20;;;1.63;;
5299;SDS011;70402;42.670;23.258;2024-03-23T14:23:14;2.03;;;1.70;;
5299;SDS011;70402;42.670;23.258;2024-03-23T14:25:40;1.67;;;1.30;;
5299;SDS011;70402;42.670;23.258;2024-03-23T14:28:06;2.07;;;1.57;;
5299;SDS011;70402;42.670;23.258;2024-03-23T14:30:38;6.83;;;1.80;;
5299;SDS011;70402;42.670;23.258;2024-03-23T14:33:05;3.67;;;2.20;;
5299;SDS011;70402;42.670;23.258;2024-03-23T14:35:31;2.60;;;1.60;;
5299;SDS011;70402;42.670;23.258;2024-03-23T14:37:58;4.07;;;2.07;;
5299;SDS011;70402;42.670;23.258;2024-03-23T14:40:24;2.30;;;1.80;;
5299;SDS011;70402;42.670;23.258;2024-03-23T14:42:53;3.23;;;2.27;;
5299;SDS011;70402;42.670;23.258;2024-03-23T14:45:20;5.30;;;2.00;;
5299;SDS011;70402;42.670;23.258;2024-03-23T14:47:47;2.93;;;1.80;;
5299;SDS011;70402;42.670;23.258;2024-03-23T14:50:13;3.27;;;2.20;;
5299;SDS011;70402;42.670;23.258;2024-03-23T14:52:44;4.17;;;2.10;;
5299;SDS011;70402;42.670;23.258;2024-03-23T14:55:14;9.37;;;3.83;;
5299;SDS011;70402;42.670;23.258;2024-03-23T14:57:40;3.60;;;2.13;;
5299;SDS011;70402;42.670;23.258;2024-03-23T15:00:09;4.70;;;2.60;;
5299;SDS011;70402;42.670;23.258;2024-03-23T15:02:39;6.47;;;3.20;;
5299;SDS011;70402;42.670;23.258;2024-03-23T15:05:05;2.73;;;2.20;;
5299;SDS011;70402;42.670;23.258;2024-03-23T15:07:37;4.23;;;2.43;;
5299;SDS011;70402;42.670;23.258;2024-03-23T15:10:04;2.77;;;1.90;;
5299;SDS011;70402;42.670;23.258;2024-03-23T15:12:31;3.50;;;2.07;;
5299;SDS011;70402;42.670;23.258;2024-03-23T15:15:00;4.90;;;2.40;;
5299;SDS011;70402;42.670;23.258;2024-03-23T15:17:26;1.80;;;1.40;;
5299;SDS011;70402;42.670;23.258;2024-03-23T15:19:52;6.17;;;1.63;;
5299;SDS011;70402;42.670;23.258;2024-03-23T15:22:21;5.90;;;1.80;;
5299;SDS011;70402;42.670;23.258;2024-03-23T15:24:47;4.53;;;1.53;;
5299;SDS011;70402;42.670;23.258;2024-03-23T15:27:13;4.13;;;2.80;;
5299;SDS011;70402;42.670;23.258;2024-03-23T15:29:40;3.10;;;1.80;;
5299;SDS011;70402;42.670;23.258;2024-03-23T15:32:10;3.83;;;2.13;;
5299;SDS011;70402;42.670;23.258;2024-03-23T15:34:36;5.20;;;2.17;;
5299;SDS011;70402;42.670;23.258;2024-03-23T15:37:03;3.60;;;1.93;;
5299;SDS011;70402;42.670;23.258;2024-03-23T15:39:29;2.70;;;2.13;;
5299;SDS011;70402;42.670;23.258;2024-03-23T15:41:55;3.70;;;2.20;;
5299;SDS011;70402;42.670;23.258;2024-03-23T15:44:21;4.60;;;2.47;;
5299;SDS011;70402;42.670;23.258;2024-03-23T15:46:48;2.80;;;2.03;;
5299;SDS011;70402;42.670;23.258;2024-03-23T15:49:14;3.67;;;2.37;;
5299;SDS011;70402;42.670;23.258;2024-03-23T15:51:40;2.53;;;2.03;;